Time;durP1;ratioP1;P1;durP2;ratioP2;P2;SDS_P1;SDS_P2;PMS_P1;PMS_P2;Temp;Humidity;BMP_temperature;BMP_pressure;BME280_temperature;BME280_humidity;BME280_pressure;Samples;Min_cycle;Max_cycle;Signal;HPM_P1;HPM_P2
2023/01/18 00:00:48;;;;;;;5.13;0.73;;;35.50;57.20;;;;;;5081819;28;20028;-64
2023/01/18 00:03:17;;;;;;;3.72;0.82;;;35.00;53.50;;;;;;5078803;28;20024;-64
2023/01/18 00:05:44;;;;;;;1.65;0.80;;;35.00;57.50;;;;;;5080413;28;20028;-64
2023/01/18 00:08:15;;;;;;;1.83;0.50;;;35.10;55.70;;;;;;5073019;28;20020;-65
2023/01/18 00:10:43;;;;;;;4.63;0.90;;;34.80;52.40;;;;;;5068854;28;21178;-64
2023/01/18 00:13:11;;;;;;;5.13;0.70;;;33.90;54.70;;;;;;5069326;28;20020;-65
2023/01/18 00:15:38;;;;;;;1.13;0.70;;;33.80;58.10;;;;;;5072460;28;20056;-64
2023/01/18 00:18:06;;;;;;;2.92;0.50;;;34.20;57.60;;;;;;5078379;28;20035;-65
2023/01/18 00:20:33;;;;;;;3.30;0.60;;;34.30;56.10;;;;;;5065627;28;20481;-64
2023/01/18 00:23:01;;;;;;;4.40;0.60;;;34.10;55.50;;;;;;5074216;28;20358;-65
2023/01/18 00:25:29;;;;;;;2.33;0.60;;;33.90;56.20;;;;;;5082105;28;20017;-64
2023/01/18 00:27:57;;;;;;;3.35;0.60;;;33.70;56.20;;;;;;5083873;28;20649;-64
2023/01/18 00:30:27;;;;;;;2.30;0.70;;;33.70;56.80;;;;;;5071306;28;20024;-64
2023/01/18 00:32:58;;;;;;;1.30;0.52;;;33.60;57.90;;;;;;5070223;28;20032;-64
2023/01/18 00:35:26;;;;;;;5.50;0.80;;;33.60;55.90;;;;;;5068452;28;20520;-64
2023/01/18 00:37:54;;;;;;;1.15;0.45;;;33.40;57.80;;;;;;5068513;28;20017;-65
2023/01/18 00:40:22;;;;;;;2.67;0.68;;;33.20;56.30;;;;;;5068982;28;20028;-64
2023/01/18 00:45:35;;;;;;;1.30;0.50;;;33.20;56.20;;;;;;5066989;28;20067;-64
2023/01/18 00:48:02;;;;;;;1.25;0.45;;;33.70;57.20;;;;;;5065276;28;20036;-65
2023/01/18 00:50:29;;;;;;;1.35;0.50;;;34.20;56.70;;;;;;5068339;28;20028;-64
2023/01/18 00:52:58;;;;;;;2.25;0.52;;;34.50;53.60;;;;;;5072256;28;20461;-64
2023/01/18 00:55:26;;;;;;;4.10;0.52;;;35.00;52.90;;;;;;5076095;28;20075;-65
2023/01/18 00:57:53;;;;;;;1.92;0.55;;;35.50;53.50;;;;;;5071712;28;20180;-64
2023/01/18 01:00:22;;;;;;;1.77;0.55;;;35.60;53.00;;;;;;5067001;28;20024;-64
2023/01/18 01:02:50;;;;;;;2.28;0.60;;;36.00;52.50;;;;;;5065501;28;20012;-64
2023/01/18 01:08:20;;;;;;;1.85;0.40;;;36.10;50.40;;;;;;5066428;28;20035;-64
2023/01/18 01:10:49;;;;;;;2.10;0.90;;;36.30;48.50;;;;;;5063739;28;20032;-64
2023/01/18 01:27:10;;;;;;;0.85;0.50;;;36.30;46.70;;;;;;5067646;28;20428;-64
2023/01/18 01:29:38;;;;;;;1.48;1.00;;;36.50;49.90;;;;;;5066113;28;20028;-64
2023/01/18 01:32:06;;;;;;;4.07;0.57;;;36.70;48.10;;;;;;5075267;28;20078;-64
2023/01/18 01:34:34;;;;;;;1.80;0.52;;;36.90;49.70;;;;;;5075228;28;20032;-63
2023/01/18 01:37:02;;;;;;;3.72;0.73;;;37.10;46.30;;;;;;5074122;28;20469;-64
2023/01/18 01:39:29;;;;;;;4.75;1.13;;;37.40;48.90;;;;;;5071316;28;20035;-64
2023/01/18 01:41:57;;;;;;;4.25;0.70;;;37.70;45.20;;;;;;5071840;28;20036;-64
2023/01/18 01:44:26;;;;;;;1.95;0.43;;;37.60;43.30;;;;;;5070806;28;20027;-64
2023/01/18 01:47:05;;;;;;;1.00;0.60;;;37.70;46.60;;;;;;5068976;28;20013;-64
2023/01/18 01:49:45;;;;;;;1.55;0.60;;;37.70;46.00;;;;;;5060386;28;20024;-65
2023/01/18 01:52:29;;;;;;;1.92;0.57;;;37.90;41.10;;;;;;5067781;28;20025;-65
2023/01/18 01:55:12;;;;;;;2.33;0.70;;;38.00;43.70;;;;;;5067766;28;20060;-65
2023/01/18 01:57:52;;;;;;;2.33;1.02;;;38.00;44.30;;;;;;5066219;28;20036;-66
2023/01/18 02:00:24;;;;;;;1.98;0.85;;;38.00;42.60;;;;;;5070301;28;20024;-66
2023/01/18 02:03:05;;;;;;;2.30;0.80;;;37.80;45.80;;;;;;5057605;28;20099;-67
2023/01/18 02:05:35;;;;;;;6.15;1.00;;;38.30;47.60;;;;;;5079928;28;20723;-65
2023/01/18 02:08:04;;;;;;;3.55;1.20;;;38.20;48.20;;;;;;5068060;28;20710;-65
2023/01/18 02:10:32;;;;;;;4.38;1.02;;;38.50;44.30;;;;;;5064737;28;20024;-65
2023/01/18 02:13:00;;;;;;;1.92;0.85;;;37.90;43.00;;;;;;5060816;28;20030;-65
2023/01/18 02:15:50;;;;;;;2.85;0.80;;;37.60;43.40;;;;;;5064654;28;20044;-65
2023/01/18 02:18:35;;;;;;;1.25;0.65;;;37.20;42.70;;;;;;5064070;28;20028;-65
2023/01/18 02:21:13;;;;;;;1.45;0.52;;;37.00;44.40;;;;;;5071696;28;20024;-65
2023/01/18 02:24:17;;;;;;;3.15;0.90;;;36.90;43.90;;;;;;5077957;28;20378;-66
2023/01/18 02:26:57;;;;;;;1.38;0.77;;;36.70;44.30;;;;;;5085411;28;20446;-63
2023/01/18 02:29:56;;;;;;;2.30;1.23;;;37.00;47.20;;;;;;5076829;28;20081;-65
2023/01/18 02:32:42;;;;;;;2.40;0.95;;;37.30;46.50;;;;;;5071174;28;20033;-64
2023/01/18 02:35:35;;;;;;;2.15;1.00;;;38.00;46.20;;;;;;5082322;28;20502;-63
2023/01/18 02:38:23;;;;;;;3.57;1.10;;;38.60;44.40;;;;;;5083092;28;20032;-64
2023/01/18 02:40:56;;;;;;;4.18;1.15;;;38.60;43.90;;;;;;5056102;28;20521;-65
2023/01/18 02:46:29;;;;;;;2.53;1.30;;;38.50;42.50;;;;;;5084233;28;20082;-65
2023/01/18 02:49:05;;;;;;;3.00;1.45;;;37.90;42.30;;;;;;5058336;28;20024;-63
2023/01/18 02:51:33;;;;;;;4.68;1.20;;;37.60;43.40;;;;;;5080755;28;20035;-65
2023/01/18 02:54:01;;;;;;;3.47;2.28;;;37.70;46.10;;;;;;5086706;28;20519;-64
2023/01/18 02:56:33;;;;;;;4.57;1.67;;;38.30;45.30;;;;;;5075757;28;20091;-64
2023/01/18 02:59:12;;;;;;;4.53;1.77;;;38.60;43.20;;;;;;5088025;28;20059;-63
2023/01/18 03:01:57;;;;;;;4.53;2.45;;;38.50;43.90;;;;;;5083289;28;20354;-65
2023/01/18 03:04:53;;;;;;;4.10;1.95;;;38.40;42.50;;;;;;5076145;28;20439;-64
2023/01/18 03:07:29;;;;;;;3.38;2.08;;;38.20;42.50;;;;;;5089267;28;20466;-65
2023/01/18 03:09:58;;;;;;;3.60;1.90;;;37.70;43.00;;;;;;5079575;28;20114;-64
2023/01/18 03:12:47;;;;;;;3.42;1.90;;;38.00;44.10;;;;;;5089432;28;20032;-64
2023/01/18 03:15:19;;;;;;;6.35;2.58;;;38.40;45.10;;;;;;5079350;28;20028;-64
2023/01/18 03:17:50;;;;;;;4.17;2.30;;;38.60;41.70;;;;;;5079754;28;20149;-65
2023/01/18 03:20:26;;;;;;;3.88;1.80;;;38.20;43.10;;;;;;5067901;28;20063;-64
2023/01/18 03:23:38;;;;;;;5.72;1.80;;;38.40;42.50;;;;;;5067396;28;20035;-64
2023/01/18 03:26:19;;;;;;;2.80;1.80;;;37.70;42.90;;;;;;5066431;28;20428;-65
2023/01/18 03:34:58;;;;;;;2.58;1.58;;;38.70;43.20;;;;;;5072906;28;20051;-65
2023/01/18 03:37:43;;;;;;;4.72;2.00;;;38.70;41.20;;;;;;5072587;28;20156;-65
2023/01/18 03:40:14;;;;;;;3.72;2.05;;;38.60;42.00;;;;;;5070895;28;20115;-64
2023/01/18 03:43:10;;;;;;;7.60;2.00;;;38.40;41.90;;;;;;5079823;28;20024;-65
2023/01/18 03:45:44;;;;;;;3.50;2.22;;;38.30;43.00;;;;;;5079938;28;20032;-66
2023/01/18 03:48:12;;;;;;;5.45;1.70;;;38.20;42.50;;;;;;5069581;28;20499;-65
2023/01/18 03:50:56;;;;;;;2.35;1.42;;;38.20;42.10;;;;;;5072671;28;20032;-65
2023/01/18 03:53:31;;;;;;;;;;;38.10;42.40;;;;;;5077165;28;20119;-65
2023/01/18 03:56:04;;;;;;;3.85;2.20;;;38.00;41.60;;;;;;5062898;28;19908;-65
2023/01/18 03:58:34;;;;;;;;;;;37.60;44.00;;;;;;5066219;28;20036;-64
2023/01/18 04:01:02;;;;;;;5.25;2.75;;;37.90;45.10;;;;;;5065683;28;19947;-63
2023/01/18 04:03:34;;;;;;;5.03;2.83;;;38.10;45.80;;;;;;5066346;28;20020;-64
2023/01/18 04:06:04;;;;;;;3.35;2.28;;;38.10;43.90;;;;;;5072553;28;20029;-64
2023/01/18 04:08:31;;;;;;;5.97;2.42;;;38.20;43.50;;;;;;5066516;28;20020;-64
2023/01/18 04:10:58;;;;;;;3.58;2.38;;;38.10;43.90;;;;;;5073875;28;20046;-65
2023/01/18 04:13:26;;;;;;;6.75;2.65;;;37.50;43.10;;;;;;5078848;28;20751;-64
2023/01/18 04:15:53;;;;;;;3.92;2.60;;;37.60;44.20;;;;;;5068482;28;20029;-64
2023/01/18 04:18:20;;;;;;;6.25;1.90;;;37.80;43.00;;;;;;5070040;28;20031;-64
2023/01/18 04:20:48;;;;;;;4.13;2.60;;;38.10;43.70;;;;;;5065969;28;20039;-64
2023/01/18 04:23:15;;;;;;;3.67;1.75;;;38.50;45.40;;;;;;5070940;28;20090;-64
2023/01/18 04:25:48;;;;;;;3.67;2.20;;;38.90;45.20;;;;;;5066827;28;20029;-65
2023/01/18 04:28:23;;;;;;;3.97;2.15;;;39.60;43.60;;;;;;5070459;28;20032;-65
2023/01/18 04:30:55;;;;;;;6.03;2.78;;;40.40;45.60;;;;;;5061692;28;20033;-65
2023/01/18 04:33:25;;;;;;;4.88;2.85;;;41.20;43.10;;;;;;5062878;28;20079;-64
2023/01/18 04:35:53;;;;;;;3.97;2.25;;;41.60;43.60;;;;;;5067716;28;20032;-64
2023/01/18 04:38:20;;;;;;;4.00;2.30;;;41.70;41.70;;;;;;5065095;28;20403;-70
2023/01/18 04:40:48;;;;;;;4.25;2.03;;;41.80;40.80;;;;;;5062874;28;20443;-66
2023/01/18 04:43:16;;;;;;;5.13;1.60;;;41.70;40.10;;;;;;5074462;28;20080;-68
2023/01/18 04:45:51;;;;;;;2.53;1.90;;;41.20;39.80;;;;;;5066164;28;20061;-65
2023/01/18 04:48:18;;;;;;;3.72;2.00;;;40.80;41.00;;;;;;5063263;28;20045;-65
2023/01/18 04:50:47;;;;;;;4.85;2.10;;;40.30;41.00;;;;;;5065123;28;20059;-65
2023/01/18 04:53:15;;;;;;;4.50;2.00;;;40.30;42.40;;;;;;5068472;28;20020;-65
2023/01/18 04:55:43;;;;;;;5.68;2.67;;;40.20;42.70;;;;;;5067256;28;20489;-66
2023/01/18 04:58:11;;;;;;;4.72;2.35;;;39.90;43.60;;;;;;4975963;28;2507734;-64
2023/01/18 05:00:38;;;;;;;4.15;2.33;;;39.80;43.00;;;;;;5065194;28;20025;-65
2023/01/18 05:03:11;;;;;;;6.07;2.38;;;39.50;42.70;;;;;;5067053;28;20028;-66
2023/01/18 05:05:38;;;;;;;3.42;2.00;;;39.10;41.40;;;;;;5064509;28;20059;-65
2023/01/18 05:08:06;;;;;;;5.28;1.98;;;38.80;41.80;;;;;;5065997;28;20056;-65
2023/01/18 05:10:33;;;;;;;3.17;2.35;;;38.40;41.40;;;;;;5068420;28;20100;-65
2023/01/18 05:13:01;;;;;;;6.43;2.20;;;38.00;42.90;;;;;;5065799;28;20111;-66
2023/01/18 05:15:28;;;;;;;3.38;2.75;;;37.80;42.40;;;;;;5059902;28;20522;-65
2023/01/18 05:17:55;;;;;;;3.67;2.53;;;37.60;43.40;;;;;;5068217;28;20039;-65
2023/01/18 05:20:26;;;;;;;5.57;2.92;;;37.50;44.60;;;;;;5065475;28;20024;-66
2023/01/18 05:22:53;;;;;;;4.53;2.58;;;37.30;46.60;;;;;;5065297;28;20406;-65
2023/01/18 05:25:20;;;;;;;4.93;2.78;;;37.40;46.10;;;;;;5064656;28;20033;-65
2023/01/18 05:27:48;;;;;;;5.35;3.53;;;37.30;43.20;;;;;;5068117;28;20029;-65
2023/01/18 05:30:15;;;;;;;5.50;2.80;;;37.10;44.20;;;;;;5068732;28;20397;-65
2023/01/18 05:32:42;;;;;;;4.55;2.78;;;37.00;44.30;;;;;;5062446;28;20032;-64
2023/01/18 05:35:10;;;;;;;7.47;2.88;;;37.00;45.40;;;;;;5060322;28;20055;-65
2023/01/18 05:37:37;;;;;;;6.28;3.35;;;36.90;43.90;;;;;;5064404;28;20024;-64
2023/01/18 05:40:05;;;;;;;3.95;3.08;;;36.90;45.00;;;;;;5067315;28;20024;-63
2023/01/18 05:42:33;;;;;;;6.68;3.05;;;36.80;44.80;;;;;;5069191;28;20051;-63
2023/01/18 05:45:00;;;;;;;6.15;1.92;;;36.70;44.30;;;;;;5066152;28;20046;-64
2023/01/18 05:47:27;;;;;;;12.27;1.85;;;36.70;48.40;;;;;;5065792;28;20013;-65
2023/01/18 05:49:56;;;;;;;5.13;2.03;;;36.50;49.70;;;;;;5066382;28;20051;-65
2023/01/18 05:52:24;;;;;;;8.40;1.40;;;36.30;51.30;;;;;;5064727;28;20605;-66
2023/01/18 05:54:51;;;;;;;3.42;1.05;;;36.00;53.50;;;;;;5067553;28;20078;-64
2023/01/18 05:57:18;;;;;;;5.80;1.73;;;35.50;54.10;;;;;;5065819;28;20032;-65
2023/01/18 05:59:46;;;;;;;6.28;1.55;;;34.90;55.60;;;;;;5067527;28;20039;-65
2023/01/18 06:02:13;;;;;;;9.13;1.55;;;34.20;56.10;;;;;;5065362;28;20043;-66
2023/01/18 06:04:43;;;;;;;5.47;1.83;;;33.90;57.10;;;;;;5069147;28;20021;-65
2023/01/18 06:07:11;;;;;;;6.57;1.70;;;33.70;58.20;;;;;;5066834;28;20103;-65
2023/01/18 06:09:38;;;;;;;6.88;1.13;;;33.20;58.90;;;;;;5064363;28;20079;-65
2023/01/18 06:12:06;;;;;;;6.45;1.65;;;33.00;60.20;;;;;;5067416;28;20093;-64
2023/01/18 06:14:33;;;;;;;10.88;1.60;;;32.90;60.70;;;;;;5064285;28;20032;-64
2023/01/18 06:17:01;;;;;;;5.05;1.83;;;32.70;61.30;;;;;;5068170;28;20384;-65
2023/01/18 06:19:28;;;;;;;8.18;2.08;;;32.60;61.40;;;;;;5066246;28;20036;-63
2023/01/18 06:21:56;;;;;;;10.68;1.45;;;32.40;62.00;;;;;;5065732;28;20039;-64
2023/01/18 06:24:23;;;;;;;4.68;1.65;;;32.20;63.00;;;;;;5064422;28;20074;-65
2023/01/18 06:26:50;;;;;;;8.40;1.90;;;32.00;63.50;;;;;;5061382;28;20032;-65
2023/01/18 06:29:18;;;;;;;8.80;1.60;;;31.80;63.80;;;;;;5065462;28;20029;-65
2023/01/18 06:31:45;;;;;;;5.25;1.92;;;31.60;64.50;;;;;;5060534;28;20021;-65
2023/01/18 06:34:12;;;;;;;6.18;1.30;;;31.40;65.60;;;;;;5063510;28;20032;-65
2023/01/18 06:36:40;;;;;;;5.80;1.30;;;31.20;66.40;;;;;;5066592;28;20023;-65
2023/01/18 06:39:07;;;;;;;9.25;1.70;;;31.10;67.00;;;;;;5067997;28;20109;-66
2023/01/18 06:41:35;;;;;;;5.50;1.17;;;30.90;67.60;;;;;;5061844;28;20025;-66
2023/01/18 06:44:02;;;;;;;8.63;1.75;;;30.60;68.50;;;;;;5065474;28;20139;-67
2023/01/18 06:46:31;;;;;;;5.20;1.30;;;30.50;69.50;;;;;;5064959;28;20036;-67
2023/01/18 06:48:58;;;;;;;9.38;1.35;;;30.50;70.20;;;;;;5063738;28;20032;-67
2023/01/18 06:51:25;;;;;;;6.72;1.38;;;30.30;70.80;;;;;;5065911;28;20403;-66
2023/01/18 06:53:53;;;;;;;7.35;2.15;;;30.10;72.10;;;;;;5063398;28;20035;-66
2023/01/18 06:56:20;;;;;;;6.05;1.52;;;29.90;73.30;;;;;;5062308;28;20081;-65
2023/01/18 06:58:47;;;;;;;13.32;2.28;;;29.90;74.80;;;;;;5066087;28;20103;-69
2023/01/18 07:01:15;;;;;;;10.70;1.85;;;29.80;75.90;;;;;;5071285;28;20036;-66
2023/01/18 07:03:42;;;;;;;5.60;1.27;;;29.70;76.90;;;;;;5079144;28;20024;-66
2023/01/18 07:06:10;;;;;;;9.65;1.80;;;29.50;78.30;;;;;;5068743;28;20025;-67
2023/01/18 07:08:38;;;;;;;9.15;2.00;;;29.40;79.90;;;;;;5065903;28;20032;-65
2023/01/18 07:11:08;;;;;;;8.55;1.70;;;29.30;81.40;;;;;;5080266;28;20032;-65
2023/01/18 07:13:39;;;;;;;8.15;2.35;;;29.20;82.80;;;;;;5065257;28;20032;-66
2023/01/18 07:16:12;;;;;;;12.35;2.20;;;29.00;84.00;;;;;;5064973;28;20047;-65
2023/01/18 07:18:42;;;;;;;6.38;1.80;;;29.00;85.50;;;;;;5081449;28;20028;-65
2023/01/18 07:21:10;;;;;;;6.95;1.98;;;29.00;86.70;;;;;;5064075;28;20081;-68
2023/01/18 07:23:40;;;;;;;11.70;2.13;;;29.00;87.40;;;;;;5074009;28;20028;-68
2023/01/18 07:26:17;;;;;;;11.98;2.25;;;28.90;88.30;;;;;;5071076;28;20067;-65
2023/01/18 07:28:46;;;;;;;9.30;2.25;;;28.90;89.30;;;;;;5071830;28;20025;-65
2023/01/18 07:31:15;;;;;;;12.30;2.17;;;28.90;89.90;;;;;;5072531;28;20035;-66
2023/01/18 07:33:42;;;;;;;14.82;2.42;;;28.90;90.40;;;;;;5057243;28;20032;-65
2023/01/18 07:36:10;;;;;;;12.50;1.85;;;28.80;90.60;;;;;;5063524;28;20048;-65
2023/01/18 07:38:38;;;;;;;12.55;2.13;;;28.70;91.10;;;;;;5068106;28;20029;-65
2023/01/18 07:41:13;;;;;;;14.65;2.60;;;28.80;91.30;;;;;;5071538;28;20089;-65
2023/01/18 07:43:42;;;;;;;14.35;2.47;;;28.80;91.20;;;;;;5069816;28;20019;-65
2023/01/18 07:46:14;;;;;;;11.65;3.05;;;28.60;91.60;;;;;;5068208;28;20028;-65
2023/01/18 07:48:41;;;;;;;8.18;1.48;;;28.50;92.00;;;;;;5067251;28;20115;-66
2023/01/18 07:51:10;;;;;;;10.85;1.83;;;28.30;92.40;;;;;;5075680;28;20819;-65
2023/01/18 07:53:39;;;;;;;13.57;2.42;;;28.30;93.00;;;;;;5079143;28;20032;-65
2023/01/18 07:56:08;;;;;;;16.63;2.85;;;28.30;93.30;;;;;;5069745;28;20731;-65
2023/01/18 07:58:36;;;;;;;4.50;1.58;;;28.20;93.60;;;;;;5078620;28;20040;-66
2023/01/18 08:01:06;;;;;;;9.73;2.15;;;28.20;93.70;;;;;;5067131;28;20107;-66
2023/01/18 08:03:33;;;;;;;11.52;2.47;;;28.20;93.90;;;;;;5077532;28;20028;-65
2023/01/18 08:06:01;;;;;;;12.15;2.53;;;28.20;94.10;;;;;;5069017;28;20021;-66
2023/01/18 08:08:29;;;;;;;12.13;2.30;;;28.10;94.00;;;;;;5070440;28;20020;-66
2023/01/18 08:10:57;;;;;;;10.32;1.88;;;28.00;94.60;;;;;;5069287;28;20016;-64
2023/01/18 08:13:26;;;;;;;11.73;2.70;;;27.90;94.80;;;;;;5073522;28;20095;-68
2023/01/18 08:15:54;;;;;;;8.63;2.10;;;27.90;94.90;;;;;;5067367;28;20052;-63
2023/01/18 08:18:22;;;;;;;12.63;3.33;;;27.90;95.20;;;;;;5068496;28;20021;-64
2023/01/18 08:20:50;;;;;;;10.32;1.92;;;27.80;95.40;;;;;;5069533;28;20027;-65
2023/01/18 08:23:17;;;;;;;10.25;2.35;;;27.70;95.50;;;;;;5073180;28;20032;-65
2023/01/18 08:25:48;;;;;;;12.38;2.10;;;27.60;95.70;;;;;;5076974;28;20111;-71
2023/01/18 08:28:16;;;;;;;10.85;1.92;;;27.60;96.20;;;;;;5073037;28;20024;-74
2023/01/18 08:30:46;;;;;;;11.38;2.17;;;27.60;96.10;;;;;;5083468;28;20014;-68
2023/01/18 08:33:13;;;;;;;22.02;2.65;;;27.60;96.30;;;;;;5071289;28;20078;-72
2023/01/18 08:35:42;;;;;;;10.93;2.22;;;27.50;96.30;;;;;;5064788;28;20102;-68
2023/01/18 08:38:10;;;;;;;10.60;2.55;;;27.50;96.70;;;;;;5060669;28;20070;-69
2023/01/18 08:40:37;;;;;;;12.35;2.60;;;27.50;96.80;;;;;;5063706;28;20032;-71
2023/01/18 08:43:05;;;;;;;10.50;2.08;;;27.40;96.90;;;;;;5076334;28;20031;-67
2023/01/18 08:45:33;;;;;;;13.10;2.63;;;27.40;97.10;;;;;;5062474;28;20024;-65
2023/01/18 08:48:10;;;;;;;10.70;2.25;;;27.30;97.10;;;;;;5064319;28;20021;-65
2023/01/18 08:50:42;;;;;;;11.23;2.40;;;27.40;97.60;;;;;;5063906;28;20558;-68
2023/01/18 08:53:09;;;;;;;19.20;3.28;;;27.30;97.20;;;;;;5068000;28;20028;-70
2023/01/18 08:55:37;;;;;;;10.13;2.38;;;27.30;97.40;;;;;;5065340;28;20067;-67
2023/01/18 08:58:04;;;;;;;10.82;1.70;;;27.30;97.40;;;;;;5073544;28;20044;-67
2023/01/18 09:00:32;;;;;;;12.65;2.00;;;27.30;97.40;;;;;;5075971;28;20038;-69
2023/01/18 09:03:01;;;;;;;8.98;2.30;;;27.30;97.70;;;;;;5069000;28;20026;-67
2023/01/18 09:05:28;;;;;;;13.43;2.42;;;27.30;97.50;;;;;;5068271;28;20032;-67
2023/01/18 09:07:56;;;;;;;11.80;3.10;;;27.40;97.50;;;;;;5070024;28;20626;-66
2023/01/18 09:10:24;;;;;;;18.67;2.33;;;27.40;97.30;;;;;;5056810;28;20040;-64
2023/01/18 09:12:51;;;;;;;28.10;3.33;;;27.30;97.00;;;;;;5065566;28;20028;-62
2023/01/18 09:15:18;;;;;;;33.35;3.75;;;27.20;97.10;;;;;;5068799;28;20028;-63
2023/01/18 09:17:46;;;;;;;24.05;4.05;;;27.00;97.40;;;;;;5057541;28;20119;-63
2023/01/18 09:20:13;;;;;;;14.75;2.55;;;26.90;97.70;;;;;;5068360;28;20021;-65
2023/01/18 09:22:41;;;;;;;7.93;2.58;;;26.80;98.50;;;;;;5060249;28;20028;-64
2023/01/18 09:25:10;;;;;;;9.32;2.17;;;26.60;98.70;;;;;;5061369;28;20778;-65
2023/01/18 09:27:37;;;;;;;21.33;3.63;;;26.50;99.40;;;;;;5067883;28;20096;-68
2023/01/18 09:30:06;;;;;;;17.30;3.60;;;26.20;99.90;;;;;;5063818;28;20028;-66
2023/01/18 09:32:33;;;;;;;10.68;3.08;;;25.30;99.90;;;;;;5068417;28;20056;-66
2023/01/18 09:35:01;;;;;;;17.48;3.30;;;24.40;99.90;;;;;;5083037;28;20036;-64
2023/01/18 09:37:28;;;;;;;11.93;4.32;;;23.80;99.90;;;;;;5073467;28;20183;-66
2023/01/18 09:39:55;;;;;;;17.95;5.10;;;23.40;99.90;;;;;;5075724;28;20131;-64
2023/01/18 09:42:35;;;;;;;24.15;4.90;;;23.10;99.90;;;;;;5079369;28;20024;-67
2023/01/18 09:45:04;;;;;;;13.88;4.78;;;22.90;99.90;;;;;;5074503;28;20378;-64
2023/01/18 09:47:39;;;;;;;12.27;4.32;;;22.80;99.90;;;;;;5070615;28;20028;-64
2023/01/18 09:50:16;;;;;;;12.98;5.28;;;22.50;99.90;;;;;;5066063;28;20028;-64
2023/01/18 09:52:58;;;;;;;14.38;5.15;;;22.40;99.90;;;;;;5065138;28;20111;-67
2023/01/18 09:55:27;;;;;;;17.58;5.97;;;22.30;99.90;;;;;;5063176;28;20082;-71
2023/01/18 09:58:12;;;;;;;26.58;6.88;;;22.10;99.90;;;;;;5062667;28;20453;-69
2023/01/18 10:00:48;;;;;;;18.85;7.55;;;21.80;99.90;;;;;;5053970;28;20032;-69
2023/01/18 10:03:34;;;;;;;19.90;8.73;;;21.70;99.90;;;;;;5062863;28;20036;-64
2023/01/18 10:06:14;;;;;;;18.40;8.68;;;21.60;99.90;;;;;;5063295;28;20111;-65
2023/01/18 10:08:47;;;;;;;24.23;10.15;;;21.60;99.90;;;;;;5063290;28;20505;-64
2023/01/18 10:30:54;;;;;;;15.35;6.82;;;21.50;99.90;;;;;;5083509;27;20500;-71
2023/01/18 10:33:37;;;;;;;13.90;6.22;;;21.40;99.90;;;;;;5076000;28;20062;-70
2023/01/18 10:36:25;;;;;;;12.82;6.13;;;21.40;99.90;;;;;;5083892;28;20031;-74
2023/01/18 10:38:54;;;;;;;10.30;5.30;;;21.40;99.90;;;;;;5085285;28;20074;-76
2023/01/18 10:41:38;;;;;;;11.60;5.43;;;21.40;99.90;;;;;;5084704;28;20472;-75
2023/01/18 10:44:08;;;;;;;18.80;6.45;;;21.40;99.90;;;;;;5085887;28;20028;-72
2023/01/18 10:46:35;;;;;;;13.13;5.25;;;21.50;99.90;;;;;;5086022;28;20032;-71
2023/01/18 10:49:03;;;;;;;9.05;4.88;;;21.50;99.90;;;;;;5087160;28;20032;-71
2023/01/18 10:51:36;;;;;;;13.18;6.22;;;21.40;99.90;;;;;;5083844;28;20020;-73
2023/01/18 10:54:18;;;;;;;11.77;5.32;;;21.40;99.90;;;;;;5084610;28;20024;-70
2023/01/18 10:56:46;;;;;;;7.18;5.18;;;21.40;99.90;;;;;;5081081;28;20031;-74
2023/01/18 10:59:32;;;;;;;9.23;5.65;;;21.40;99.90;;;;;;5084013;28;20035;-73
2023/01/18 11:01:59;;;;;;;11.95;6.13;;;21.40;99.90;;;;;;5081465;28;20507;-71
2023/01/18 11:04:33;;;;;;;11.50;6.70;;;21.40;99.90;;;;;;5083536;28;20028;-69
2023/01/18 11:07:02;;;;;;;12.32;6.47;;;21.30;99.90;;;;;;5084806;28;20024;-74
2023/01/18 11:09:50;;;;;;;10.15;6.35;;;21.40;99.90;;;;;;5069531;28;20028;-72
2023/01/18 11:12:32;;;;;;;14.13;6.53;;;21.40;99.90;;;;;;5088367;28;20020;-72
2023/01/18 11:15:24;;;;;;;11.80;6.93;;;21.40;99.90;;;;;;5078872;28;20032;-72
2023/01/18 11:17:56;;;;;;;13.57;8.20;;;21.40;99.90;;;;;;5064257;28;20358;-72
2023/01/18 11:20:33;;;;;;;16.08;9.05;;;21.40;99.90;;;;;;5062314;28;20016;-72
2023/01/18 11:23:13;;;;;;;20.25;11.93;;;21.40;99.90;;;;;;5065215;28;20055;-69
2023/01/18 11:26:03;;;;;;;16.25;9.60;;;21.30;99.90;;;;;;5065062;28;20703;-68
2023/01/18 11:29:01;;;;;;;11.23;7.22;;;21.30;99.90;;;;;;5058250;28;20042;-69
2023/01/18 11:31:44;;;;;;;14.15;7.85;;;21.40;99.90;;;;;;5052651;28;20029;-68
2023/01/18 11:34:29;;;;;;;11.32;7.05;;;21.40;99.90;;;;;;5050876;28;20489;-68
2023/01/18 11:36:59;;;;;;;15.52;7.88;;;21.40;99.90;;;;;;5050201;28;20033;-70
2023/01/18 11:39:36;;;;;;;12.77;7.90;;;21.40;99.90;;;;;;5051595;28;20037;-69
2023/01/18 11:42:33;;;;;;;17.13;8.10;;;21.40;99.90;;;;;;5052371;28;20092;-69
2023/01/18 11:45:20;;;;;;;13.38;7.90;;;21.40;99.90;;;;;;5051986;28;20024;-68
2023/01/18 11:48:09;;;;;;;19.10;7.22;;;21.50;99.90;;;;;;5051936;28;20029;-68
2023/01/18 11:50:42;;;;;;;17.58;7.30;;;21.40;99.90;;;;;;5050552;28;20029;-68
2023/01/18 11:53:36;;;;;;;11.80;7.00;;;21.30;99.90;;;;;;5050932;28;20103;-68
2023/01/18 11:56:12;;;;;;;14.25;6.82;;;21.30;99.90;;;;;;5044312;28;20390;-68
2023/01/18 11:58:40;;;;;;;14.55;6.55;;;21.30;99.90;;;;;;5049086;28;20025;-68
2023/01/18 12:01:25;;;;;;;13.32;6.35;;;21.30;99.90;;;;;;5037344;28;20067;-69
2023/01/18 12:03:56;;;;;;;;;;;21.20;99.90;;;;;;5050149;28;20028;-69
2023/01/18 12:06:35;;;;;;;10.00;5.75;;;21.30;99.90;;;;;;5051155;28;20276;-69
2023/01/18 12:09:20;;;;;;;12.88;6.57;;;21.30;99.90;;;;;;5051054;28;20087;-68
2023/01/18 12:11:50;;;;;;;15.80;7.38;;;21.30;99.90;;;;;;5050580;28;20162;-69
2023/01/18 12:14:44;;;;;;;11.82;7.50;;;21.30;99.90;;;;;;5048183;28;20036;-69
2023/01/18 12:17:20;;;;;;;14.68;6.82;;;21.30;99.90;;;;;;5050626;28;20025;-69
2023/01/18 12:20:00;;;;;;;11.82;7.38;;;21.30;99.90;;;;;;5049532;28;20021;-69
2023/01/18 12:22:54;;;;;;;15.10;7.07;;;21.30;99.90;;;;;;5046013;28;20021;-69
2023/01/18 12:25:52;;;;;;;15.27;7.60;;;21.40;99.90;;;;;;5050186;28;20021;-69
2023/01/18 12:28:31;;;;;;;13.75;7.20;;;21.40;99.90;;;;;;5036770;28;20056;-69
2023/01/18 12:31:02;;;;;;;8.75;6.03;;;21.30;99.90;;;;;;5041002;28;20028;-70
2023/01/18 12:34:12;;;;;;;10.85;5.95;;;21.30;99.90;;;;;;5047952;28;20053;-69
2023/01/18 12:36:44;;;;;;;10.85;5.80;;;21.30;99.90;;;;;;5047871;28;20045;-70
2023/01/18 12:39:53;;;;;;;14.95;6.88;;;21.30;99.90;;;;;;5050086;28;20120;-69
2023/01/18 12:42:39;;;;;;;12.25;6.38;;;21.20;99.90;;;;;;5023935;28;20033;-69
2023/01/18 12:45:29;;;;;;;12.27;6.97;;;21.20;99.90;;;;;;5049865;28;20032;-69
2023/01/18 12:48:02;;;;;;;12.90;7.15;;;21.20;99.90;;;;;;5041467;28;20032;-69
2023/01/18 12:50:36;;;;;;;12.45;7.05;;;21.20;99.90;;;;;;5049081;28;20028;-69
2023/01/18 12:53:32;;;;;;;12.10;6.70;;;21.30;99.90;;;;;;5050751;28;20358;-69
2023/01/18 12:56:09;;;;;;;12.55;8.15;;;21.30;99.90;;;;;;5028666;28;20045;-69
2023/01/18 12:58:36;;;;;;;16.55;9.05;;;21.30;99.90;;;;;;5050842;28;20021;-69
2023/01/18 13:01:06;;;;;;;14.38;8.32;;;21.30;99.90;;;;;;5049165;28;20053;-69
2023/01/18 13:03:43;;;;;;;15.43;8.52;;;21.30;99.90;;;;;;5048671;28;20046;-70
2023/01/18 13:06:12;;;;;;;16.52;8.27;;;21.40;99.90;;;;;;5048144;28;20480;-69
2023/01/18 13:09:00;;;;;;;13.85;7.90;;;21.40;99.90;;;;;;5049122;28;20094;-69
2023/01/18 13:11:36;;;;;;;16.67;7.93;;;21.40;99.90;;;;;;5048384;28;20540;-69
2023/01/18 13:14:32;;;;;;;14.43;8.93;;;21.40;99.90;;;;;;5047651;28;20037;-70
2023/01/18 13:17:34;;;;;;;12.27;8.48;;;21.50;99.90;;;;;;5047492;28;20040;-69
2023/01/18 13:20:16;;;;;;;12.85;8.45;;;21.50;99.90;;;;;;5049342;28;20017;-70
2023/01/18 13:23:26;;;;;;;11.43;7.95;;;21.50;99.90;;;;;;5048890;28;20024;-70
2023/01/18 13:25:56;;;;;;;14.13;8.07;;;21.50;99.90;;;;;;5048102;28;20036;-70
2023/01/18 13:28:25;;;;;;;13.52;7.80;;;21.50;99.90;;;;;;5048354;28;20017;-70
2023/01/18 13:31:04;;;;;;;14.68;8.43;;;21.50;99.90;;;;;;5047339;28;20029;-70
2023/01/18 13:33:39;;;;;;;13.27;8.23;;;21.50;99.90;;;;;;5048571;28;20063;-70
2023/01/18 13:36:16;;;;;;;10.70;7.97;;;21.40;99.90;;;;;;5048445;28;20385;-69
2023/01/18 13:39:02;;;;;;;13.38;8.52;;;21.40;99.90;;;;;;5047120;28;20508;-70
2023/01/18 13:41:31;;;;;;;17.33;9.57;;;21.40;99.90;;;;;;5048601;28;20063;-70
2023/01/18 13:44:00;;;;;;;22.63;11.88;;;21.50;99.90;;;;;;5048043;28;20024;-70
2023/01/18 13:46:28;;;;;;;17.25;11.43;;;21.50;99.90;;;;;;5047791;28;20107;-70
2023/01/18 13:48:57;;;;;;;19.33;11.15;;;21.50;99.90;;;;;;5048219;28;20039;-70
2023/01/18 13:51:52;;;;;;;18.63;10.38;;;21.50;99.90;;;;;;5047302;28;20013;-70
2023/01/18 13:54:22;;;;;;;16.15;10.15;;;21.50;99.90;;;;;;5047589;28;20025;-70
2023/01/18 13:57:04;;;;;;;19.88;10.13;;;21.50;99.90;;;;;;5048336;28;20017;-71
2023/01/18 13:59:36;;;;;;;14.02;8.48;;;21.40;99.90;;;;;;5046726;28;20033;-70
2023/01/18 14:02:31;;;;;;;13.15;8.95;;;21.50;99.90;;;;;;5047126;28;20025;-70